sensor_id;sensor_type;location;lat;lon;timestamp;pressure;altitude;pressure_sealevel;temperature;humidity
70343;BME280;57767;42.068;24.752;2023-02-17T00:00:43;99864.91;;;3.07;60.89
70343;BME280;57767;42.068;24.752;2023-02-17T00:01:45;99858.31;;;3.12;60.75
70343;BME280;57767;42.068;24.752;2023-02-17T00:02:47;99857.50;;;3.12;60.82
70343;BME280;57767;42.068;24.752;2023-02-17T00:03:49;99857.50;;;3.12;60.66
70343;BME280;57767;42.068;24.752;2023-02-17T00:04:52;99843.75;;;3.10;60.22
70343;BME280;57767;42.068;24.752;2023-02-17T00:05:54;99855.16;;;3.18;60.24
70343;BME280;57767;42.068;24.752;2023-02-17T00:06:56;99859.72;;;3.16;60.19
70343;BME280;57767;42.068;24.752;2023-02-17T00:07:58;99853.94;;;3.22;59.49
70343;BME280;57767;42.068;24.752;2023-02-17T00:09:00;99856.97;;;3.28;59.04
70343;BME280;57767;42.068;24.752;2023-02-17T00:10:02;99858.88;;;3.26;58.77
70343;BME280;57767;42.068;24.752;2023-02-17T00:11:04;99853.41;;;3.29;59.03
70343;BME280;57767;42.068;24.752;2023-02-17T00:12:06;99856.09;;;3.17;59.71
70343;BME280;57767;42.068;24.752;2023-02-17T00:13:08;99855.28;;;3.17;59.63
70343;BME280;57767;42.068;24.752;2023-02-17T00:14:11;99849.66;;;3.21;59.14
70343;BME280;57767;42.068;24.752;2023-02-17T00:15:13;99847.88;;;3.22;59.37
70343;BME280;57767;42.068;24.752;2023-02-17T00:16:18;99847.63;;;3.15;59.66
70343;BME280;57767;42.068;24.752;2023-02-17T00:17:20;99846.50;;;2.99;60.03
70343;BME280;57767;42.068;24.752;2023-02-17T00:18:22;99852.53;;;2.99;59.67
70343;BME280;57767;42.068;24.752;2023-02-17T00:19:24;99832.19;;;2.83;59.68
70343;BME280;57767;42.068;24.752;2023-02-17T00:20:27;99844.28;;;2.94;60.24
70343;BME280;57767;42.068;24.752;2023-02-17T00:21:30;99844.84;;;2.88;60.62
70343;BME280;57767;42.068;24.752;2023-02-17T00:22:32;99842.22;;;2.88;60.76
70343;BME280;57767;42.068;24.752;2023-02-17T00:23:34;99839.72;;;2.77;60.97
70343;BME280;57767;42.068;24.752;2023-02-17T00:24:37;99834.66;;;2.75;60.94
70343;BME280;57767;42.068;24.752;2023-02-17T00:25:39;99831.63;;;2.80;61.04
70343;BME280;57767;42.068;24.752;2023-02-17T00:26:41;99842.63;;;2.83;60.75
70343;BME280;57767;42.068;24.752;2023-02-17T00:27:43;99832.75;;;2.77;60.98
70343;BME280;57767;42.068;24.752;2023-02-17T00:28:45;99840.41;;;2.79;61.16
70343;BME280;57767;42.068;24.752;2023-02-17T00:29:47;99840.56;;;2.77;61.09
70343;BME280;57767;42.068;24.752;2023-02-17T00:30:49;99842.06;;;2.80;60.79
70343;BME280;57767;42.068;24.752;2023-02-17T00:31:52;99842.63;;;2.83;60.59
70343;BME280;57767;42.068;24.752;2023-02-17T00:32:54;99840.56;;;2.87;60.46
70343;BME280;57767;42.068;24.752;2023-02-17T00:33:55;99840.13;;;2.82;60.56
70343;BME280;57767;42.068;24.752;2023-02-17T00:34:57;99836.16;;;2.78;60.84
70343;BME280;57767;42.068;24.752;2023-02-17T00:36:02;99836.00;;;2.79;60.87
70343;BME280;57767;42.068;24.752;2023-02-17T00:37:04;99833.84;;;2.84;60.49
70343;BME280;57767;42.068;24.752;2023-02-17T00:38:06;99828.63;;;2.84;59.87
70343;BME280;57767;42.068;24.752;2023-02-17T00:39:08;99826.44;;;2.90;59.23
70343;BME280;57767;42.068;24.752;2023-02-17T00:40:11;99826.31;;;2.91;59.38
70343;BME280;57767;42.068;24.752;2023-02-17T00:41:13;99829.19;;;2.88;59.46
70343;BME280;57767;42.068;24.752;2023-02-17T00:42:15;99831.66;;;2.90;59.86
70343;BME280;57767;42.068;24.752;2023-02-17T00:43:16;99810.50;;;2.83;59.54
70343;BME280;57767;42.068;24.752;2023-02-17T00:44:21;99827.09;;;2.92;58.83
70343;BME280;57767;42.068;24.752;2023-02-17T00:45:23;99828.63;;;2.94;58.56
70343;BME280;57767;42.068;24.752;2023-02-17T00:46:25;99818.19;;;2.94;58.43
70343;BME280;57767;42.068;24.752;2023-02-17T00:47:27;99816.53;;;2.93;58.99
70343;BME280;57767;42.068;24.752;2023-02-17T00:48:30;99814.88;;;2.92;59.10
70343;BME280;57767;42.068;24.752;2023-02-17T00:49:32;99797.72;;;2.80;59.68
70343;BME280;57767;42.068;24.752;2023-02-17T00:50:33;99805.28;;;2.83;59.38
70343;BME280;57767;42.068;24.752;2023-02-17T00:51:35;99808.31;;;2.78;59.85
70343;BME280;57767;42.068;24.752;2023-02-17T00:52:37;99817.88;;;2.68;59.22
70343;BME280;57767;42.068;24.752;2023-02-17T00:53:39;99821.72;;;2.64;59.22
70343;BME280;57767;42.068;24.752;2023-02-17T00:54:41;99809.91;;;2.70;59.01
70343;BME280;57767;42.068;24.752;2023-02-17T00:55:43;99807.81;;;2.54;59.69
70343;BME280;57767;42.068;24.752;2023-02-17T00:56:45;99817.03;;;2.58;59.17
70343;BME280;57767;42.068;24.752;2023-02-17T00:57:47;99806.22;;;2.63;58.59
70343;BME280;57767;42.068;24.752;2023-02-17T00:58:48;99804.44;;;2.63;59.71
70343;BME280;57767;42.068;24.752;2023-02-17T00:59:50;99807.44;;;2.68;59.74
70343;BME280;57767;42.068;24.752;2023-02-17T01:00:54;99797.84;;;2.69;59.95
70343;BME280;57767;42.068;24.752;2023-02-17T01:01:56;99789.03;;;2.60;59.46
70343;BME280;57767;42.068;24.752;2023-02-17T01:02:57;99794.81;;;2.64;59.30
70343;BME280;57767;42.068;24.752;2023-02-17T01:03:59;99802.66;;;2.64;59.40
70343;BME280;57767;42.068;24.752;2023-02-17T01:05:01;99794.25;;;2.60;59.44
70343;BME280;57767;42.068;24.752;2023-02-17T01:06:06;99804.69;;;2.60;59.81
70343;BME280;57767;42.068;24.752;2023-02-17T01:07:08;99794.41;;;2.59;60.03
70343;BME280;57767;42.068;24.752;2023-02-17T01:08:11;99771.31;;;2.44;60.08
70343;BME280;57767;42.068;24.752;2023-02-17T01:09:13;99782.44;;;2.46;59.20
70343;BME280;57767;42.068;24.752;2023-02-17T01:10:16;99797.00;;;2.59;59.97
70343;BME280;57767;42.068;24.752;2023-02-17T01:11:19;99790.97;;;2.58;59.69
70343;BME280;57767;42.068;24.752;2023-02-17T01:12:22;99778.59;;;2.50;59.37
70343;BME280;57767;42.068;24.752;2023-02-17T01:13:23;99779.56;;;2.49;59.41
70343;BME280;57767;42.068;24.752;2023-02-17T01:14:25;99780.09;;;2.43;59.70
70343;BME280;57767;42.068;24.752;2023-02-17T01:15:27;99774.34;;;2.40;60.32
70343;BME280;57767;42.068;24.752;2023-02-17T01:16:31;99774.03;;;2.33;60.09
70343;BME280;57767;42.068;24.752;2023-02-17T01:17:36;99776.13;;;2.39;60.21
70343;BME280;57767;42.068;24.752;2023-02-17T01:18:38;99786.13;;;2.44;60.12
70343;BME280;57767;42.068;24.752;2023-02-17T01:19:40;99784.47;;;2.43;60.52
70343;BME280;57767;42.068;24.752;2023-02-17T01:20:42;99787.91;;;2.43;60.25
70343;BME280;57767;42.068;24.752;2023-02-17T01:21:44;99782.81;;;2.42;60.13
70343;BME280;57767;42.068;24.752;2023-02-17T01:22:46;99782.00;;;2.41;59.81
70343;BME280;57767;42.068;24.752;2023-02-17T01:23:49;99788.84;;;2.42;59.99
70343;BME280;57767;42.068;24.752;2023-02-17T01:24:51;99787.19;;;2.41;59.83
70343;BME280;57767;42.068;24.752;2023-02-17T01:25:53;99784.88;;;2.38;59.97
70343;BME280;57767;42.068;24.752;2023-02-17T01:26:55;99782.41;;;2.37;59.93
70343;BME280;57767;42.068;24.752;2023-02-17T01:27:57;99786.78;;;2.36;60.42
70343;BME280;57767;42.068;24.752;2023-02-17T01:28:59;99776.88;;;2.30;60.55
70343;BME280;57767;42.068;24.752;2023-02-17T01:30:01;99755.06;;;2.22;60.93
70343;BME280;57767;42.068;24.752;2023-02-17T01:31:07;99779.94;;;2.35;59.96
70343;BME280;57767;42.068;24.752;2023-02-17T01:32:09;99771.97;;;2.27;60.56
70343;BME280;57767;42.068;24.752;2023-02-17T01:33:11;99766.44;;;2.21;60.75
70343;BME280;57767;42.068;24.752;2023-02-17T01:34:12;99778.13;;;2.26;61.09
70343;BME280;57767;42.068;24.752;2023-02-17T01:35:14;99779.78;;;2.27;61.06
70343;BME280;57767;42.068;24.752;2023-02-17T01:36:17;99767.84;;;2.25;61.45
70343;BME280;57767;42.068;24.752;2023-02-17T01:37:19;99763.00;;;2.20;61.86
70343;BME280;57767;42.068;24.752;2023-02-17T01:38:21;99764.06;;;2.08;61.63
70343;BME280;57767;42.068;24.752;2023-02-17T01:39:23;99761.59;;;2.06;61.27
70343;BME280;57767;42.068;24.752;2023-02-17T01:40:24;99746.38;;;2.02;61.49
70343;BME280;57767;42.068;24.752;2023-02-17T01:41:27;99747.47;;;2.09;61.72
70343;BME280;57767;42.068;24.752;2023-02-17T01:42:29;99745.84;;;2.08;61.43
70343;BME280;57767;42.068;24.752;2023-02-17T01:43:31;99741.56;;;2.07;61.00
70343;BME280;57767;42.068;24.752;2023-02-17T01:44:33;99750.09;;;2.09;61.58
70343;BME280;57767;42.068;24.752;2023-02-17T01:45:39;99743.91;;;2.10;62.35
70343;BME280;57767;42.068;24.752;2023-02-17T01:46:44;99739.09;;;2.05;62.32
70343;BME280;57767;42.068;24.752;2023-02-17T01:47:52;99737.56;;;1.93;63.04
70343;BME280;57767;42.068;24.752;2023-02-17T01:48:55;99743.22;;;1.77;62.96
70343;BME280;57767;42.068;24.752;2023-02-17T01:49:56;99740.50;;;1.79;63.32
70343;BME280;57767;42.068;24.752;2023-02-17T01:51:15;99735.25;;;1.69;63.39
70343;BME280;57767;42.068;24.752;2023-02-17T01:52:24;99744.22;;;1.76;62.57
70343;BME280;57767;42.068;24.752;2023-02-17T01:53:36;99744.75;;;1.80;62.00
70343;BME280;57767;42.068;24.752;2023-02-17T01:54:44;99734.22;;;1.82;62.14
70343;BME280;57767;42.068;24.752;2023-02-17T01:55:46;99742.22;;;1.90;62.21
70343;BME280;57767;42.068;24.752;2023-02-17T01:56:49;99737.81;;;1.90;61.92
70343;BME280;57767;42.068;24.752;2023-02-17T01:57:55;99740.81;;;1.86;61.64
70343;BME280;57767;42.068;24.752;2023-02-17T01:59:02;99721.44;;;1.78;62.25
70343;BME280;57767;42.068;24.752;2023-02-17T02:00:07;99741.22;;;1.91;61.88
70343;BME280;57767;42.068;24.752;2023-02-17T02:01:10;99733.13;;;1.84;61.51
70343;BME280;57767;42.068;24.752;2023-02-17T02:02:12;99742.72;;;1.84;61.53
70343;BME280;57767;42.068;24.752;2023-02-17T02:03:15;99736.69;;;1.83;61.54
70343;BME280;57767;42.068;24.752;2023-02-17T02:04:18;99700.44;;;1.61;61.27
70343;BME280;57767;42.068;24.752;2023-02-17T02:05:21;99733.97;;;1.85;61.38
70343;BME280;57767;42.068;24.752;2023-02-17T02:06:24;99734.75;;;1.75;61.42
70343;BME280;57767;42.068;24.752;2023-02-17T02:07:31;99741.44;;;1.78;62.19
70343;BME280;57767;42.068;24.752;2023-02-17T02:08:41;99740.63;;;1.77;61.44
70343;BME280;57767;42.068;24.752;2023-02-17T02:09:50;99725.41;;;1.73;61.60
70343;BME280;57767;42.068;24.752;2023-02-17T02:10:53;99736.94;;;1.80;61.65
70343;BME280;57767;42.068;24.752;2023-02-17T02:11:54;99735.41;;;1.77;62.09
70343;BME280;57767;42.068;24.752;2023-02-17T02:12:56;99736.81;;;1.82;62.14
70343;BME280;57767;42.068;24.752;2023-02-17T02:13:59;99735.03;;;1.82;61.89
70343;BME280;57767;42.068;24.752;2023-02-17T02:16:28;99746.84;;;1.86;62.96
70343;BME280;57767;42.068;24.752;2023-02-17T02:18:59;99746.16;;;1.84;62.84
70343;BME280;57767;42.068;24.752;2023-02-17T02:21:43;99744.75;;;1.80;62.55
70343;BME280;57767;42.068;24.752;2023-02-17T02:34:28;99745.16;;;1.75;64.17
70343;BME280;57767;42.068;24.752;2023-02-17T02:37:55;99733.63;;;1.78;63.78
70343;BME280;57767;42.068;24.752;2023-02-17T02:39:13;99741.03;;;1.73;64.76
70343;BME280;57767;42.068;24.752;2023-02-17T02:40:20;99732.97;;;1.76;64.62
70343;BME280;57767;42.068;24.752;2023-02-17T02:41:32;99732.81;;;1.77;64.56
70343;BME280;57767;42.068;24.752;2023-02-17T02:42:35;99721.53;;;1.67;64.49
70343;BME280;57767;42.068;24.752;2023-02-17T02:43:37;99727.06;;;1.74;64.52
70343;BME280;57767;42.068;24.752;2023-02-17T02:44:39;99726.44;;;1.61;64.92
70343;BME280;57767;42.068;24.752;2023-02-17T02:45:41;99734.44;;;1.69;64.94
70343;BME280;57767;42.068;24.752;2023-02-17T02:46:44;99740.22;;;1.72;64.97
70343;BME280;57767;42.068;24.752;2023-02-17T02:47:56;99720.84;;;1.65;64.87
70343;BME280;57767;42.068;24.752;2023-02-17T02:48:58;99726.50;;;1.70;64.25
70343;BME280;57767;42.068;24.752;2023-02-17T02:50:01;99737.34;;;1.75;64.25
70343;BME280;57767;42.068;24.752;2023-02-17T02:52:18;99735.28;;;1.79;64.02
70343;BME280;57767;42.068;24.752;2023-02-17T02:55:08;99728.59;;;1.76;64.19
70343;BME280;57767;42.068;24.752;2023-02-17T02:57:56;99744.94;;;1.88;64.13
70343;BME280;57767;42.068;24.752;2023-02-17T03:00:36;99737.50;;;1.84;63.83
70343;BME280;57767;42.068;24.752;2023-02-17T03:04:30;99732.03;;;1.77;63.63
70343;BME280;57767;42.068;24.752;2023-02-17T03:05:56;99726.25;;;1.73;64.06
70343;BME280;57767;42.068;24.752;2023-02-17T03:07:21;99735.88;;;1.83;64.21
70343;BME280;57767;42.068;24.752;2023-02-17T03:09:30;99726.00;;;1.76;64.02
70343;BME280;57767;42.068;24.752;2023-02-17T03:10:32;99729.53;;;1.75;63.94
70343;BME280;57767;42.068;24.752;2023-02-17T03:11:34;99729.25;;;1.78;64.06
70343;BME280;57767;42.068;24.752;2023-02-17T03:12:37;99724.06;;;1.78;63.46
70343;BME280;57767;42.068;24.752;2023-02-17T03:13:39;99725.44;;;1.83;63.33
70343;BME280;57767;42.068;24.752;2023-02-17T03:14:43;99717.34;;;1.76;62.91
70343;BME280;57767;42.068;24.752;2023-02-17T03:15:46;99730.41;;;1.86;63.12
70343;BME280;57767;42.068;24.752;2023-02-17T03:16:49;99724.38;;;1.85;62.90
70343;BME280;57767;42.068;24.752;2023-02-17T03:17:51;99715.03;;;1.83;63.29
70343;BME280;57767;42.068;24.752;2023-02-17T03:18:53;99719.16;;;1.85;63.74
70343;BME280;57767;42.068;24.752;2023-02-17T03:19:54;99720.00;;;1.86;63.16
70343;BME280;57767;42.068;24.752;2023-02-17T03:21:09;99717.38;;;1.86;62.93
70343;BME280;57767;42.068;24.752;2023-02-17T03:23:16;99707.09;;;1.84;63.19
70343;BME280;57767;42.068;24.752;2023-02-17T03:24:18;99721.31;;;1.80;63.22
70343;BME280;57767;42.068;24.752;2023-02-17T03:25:20;99711.44;;;1.74;62.92
70343;BME280;57767;42.068;24.752;2023-02-17T03:26:22;99711.97;;;1.77;62.55
70343;BME280;57767;42.068;24.752;2023-02-17T03:27:24;99709.53;;;1.76;63.04
70343;BME280;57767;42.068;24.752;2023-02-17T03:28:26;99712.31;;;1.84;62.45
70343;BME280;57767;42.068;24.752;2023-02-17T03:29:27;99712.31;;;1.84;61.96
70343;BME280;57767;42.068;24.752;2023-02-17T03:30:29;99707.91;;;1.85;62.11
70343;BME280;57767;42.068;24.752;2023-02-17T03:31:31;99696.66;;;1.74;62.49
70343;BME280;57767;42.068;24.752;2023-02-17T03:32:33;99717.94;;;1.89;62.75
70343;BME280;57767;42.068;24.752;2023-02-17T03:33:35;99708.19;;;1.82;62.15
70343;BME280;57767;42.068;24.752;2023-02-17T03:34:37;99724.94;;;1.89;62.32
70343;BME280;57767;42.068;24.752;2023-02-17T03:35:39;99721.59;;;1.77;62.95
70343;BME280;57767;42.068;24.752;2023-02-17T03:36:41;99717.16;;;1.68;63.77
70343;BME280;57767;42.068;24.752;2023-02-17T03:37:42;99706.72;;;1.58;63.31
70343;BME280;57767;42.068;24.752;2023-02-17T03:38:44;99720.47;;;1.70;62.82
70343;BME280;57767;42.068;24.752;2023-02-17T03:39:46;99729.22;;;1.69;63.01
70343;BME280;57767;42.068;24.752;2023-02-17T03:40:48;99729.78;;;1.72;63.11
70343;BME280;57767;42.068;24.752;2023-02-17T03:41:49;99721.28;;;1.70;63.04
70343;BME280;57767;42.068;24.752;2023-02-17T03:42:52;99731.13;;;1.67;63.42
70343;BME280;57767;42.068;24.752;2023-02-17T03:43:53;99723.97;;;1.59;62.81
70343;BME280;57767;42.068;24.752;2023-02-17T03:44:55;99728.41;;;1.68;62.80
70343;BME280;57767;42.068;24.752;2023-02-17T03:45:57;99715.50;;;1.67;62.50
70343;BME280;57767;42.068;24.752;2023-02-17T03:46:59;99718.69;;;1.70;62.75
70343;BME280;57767;42.068;24.752;2023-02-17T03:48:01;99724.84;;;1.69;62.63
70343;BME280;57767;42.068;24.752;2023-02-17T03:49:02;99731.81;;;1.69;62.39
70343;BME280;57767;42.068;24.752;2023-02-17T03:50:04;99728.53;;;1.67;62.85
70343;BME280;57767;42.068;24.752;2023-02-17T03:52:16;99737.84;;;1.69;62.20
70343;BME280;57767;42.068;24.752;2023-02-17T03:53:17;99729.22;;;1.69;62.23
70343;BME280;57767;42.068;24.752;2023-02-17T03:54:19;99733.19;;;1.63;63.25
70343;BME280;57767;42.068;24.752;2023-02-17T03:55:21;99729.44;;;1.56;63.33
70343;BME280;57767;42.068;24.752;2023-02-17T03:56:23;99735.09;;;1.61;64.06
70343;BME280;57767;42.068;24.752;2023-02-17T03:57:25;99740.41;;;1.60;63.62
70343;BME280;57767;42.068;24.752;2023-02-17T03:58:26;99737.94;;;1.58;63.80
70343;BME280;57767;42.068;24.752;2023-02-17T03:59:28;99740.28;;;1.61;63.18
70343;BME280;57767;42.068;24.752;2023-02-17T04:00:30;99735.91;;;1.62;62.55
70343;BME280;57767;42.068;24.752;2023-02-17T04:01:32;99739.47;;;1.61;63.34
70343;BME280;57767;42.068;24.752;2023-02-17T04:02:34;99727.78;;;1.55;62.83
70343;BME280;57767;42.068;24.752;2023-02-17T04:03:36;99737.44;;;1.64;62.26
70343;BME280;57767;42.068;24.752;2023-02-17T04:04:38;99734.38;;;1.59;62.55
70343;BME280;57767;42.068;24.752;2023-02-17T04:05:43;99741.13;;;1.62;62.98
70343;BME280;57767;42.068;24.752;2023-02-17T04:06:45;99747.97;;;1.63;62.85
70343;BME280;57767;42.068;24.752;2023-02-17T04:07:47;99699.91;;;1.36;62.91
70343;BME280;57767;42.068;24.752;2023-02-17T04:08:49;99747.41;;;1.59;62.68
70343;BME280;57767;42.068;24.752;2023-02-17T04:09:50;99740.91;;;1.54;62.45
70343;BME280;57767;42.068;24.752;2023-02-17T04:10:54;99752.72;;;1.58;62.74
70343;BME280;57767;42.068;24.752;2023-02-17T04:11:56;99743.53;;;1.54;62.96
70343;BME280;57767;42.068;24.752;2023-02-17T04:12:58;99734.75;;;1.55;62.85
70343;BME280;57767;42.068;24.752;2023-02-17T04:14:00;99743.16;;;1.58;62.79
70343;BME280;57767;42.068;24.752;2023-02-17T04:15:02;99744.34;;;1.54;62.30
70343;BME280;57767;42.068;24.752;2023-02-17T04:16:04;99746.69;;;1.57;62.20
70343;BME280;57767;42.068;24.752;2023-02-17T04:17:07;99737.13;;;1.58;63.06
70343;BME280;57767;42.068;24.752;2023-02-17T04:18:09;99741.81;;;1.43;63.65
70343;BME280;57767;42.068;24.752;2023-02-17T04:19:10;99742.47;;;1.35;64.05
70343;BME280;57767;42.068;24.752;2023-02-17T04:20:12;99734.97;;;1.21;64.81
70343;BME280;57767;42.068;24.752;2023-02-17T04:21:14;99742.13;;;1.29;64.91
70343;BME280;57767;42.068;24.752;2023-02-17T04:22:16;99731.56;;;1.21;65.75
70343;BME280;57767;42.068;24.752;2023-02-17T04:23:18;99726.22;;;1.22;65.25
70343;BME280;57767;42.068;24.752;2023-02-17T04:24:20;99711.59;;;1.00;65.80
70343;BME280;57767;42.068;24.752;2023-02-17T04:25:21;99720.44;;;0.98;66.04
70343;BME280;57767;42.068;24.752;2023-02-17T04:26:23;99722.16;;;0.88;67.29
70343;BME280;57767;42.068;24.752;2023-02-17T04:27:25;99727.91;;;0.91;66.86
70343;BME280;57767;42.068;24.752;2023-02-17T04:28:27;99734.41;;;0.97;66.42
70343;BME280;57767;42.068;24.752;2023-02-17T04:29:29;99728.31;;;1.07;65.92
70343;BME280;57767;42.068;24.752;2023-02-17T04:30:31;99708.00;;;1.01;65.72
70343;BME280;57767;42.068;24.752;2023-02-17T04:31:32;99723.34;;;1.04;66.20
70343;BME280;57767;42.068;24.752;2023-02-17T04:32:34;99719.56;;;1.08;65.91
70343;BME280;57767;42.068;24.752;2023-02-17T04:33:36;99719.03;;;1.15;65.19
70343;BME280;57767;42.068;24.752;2023-02-17T04:34:38;99703.72;;;1.12;64.52
70343;BME280;57767;42.068;24.752;2023-02-17T04:35:40;99723.50;;;1.24;64.04
70343;BME280;57767;42.068;24.752;2023-02-17T04:36:42;99720.09;;;1.23;64.00
70343;BME280;57767;42.068;24.752;2023-02-17T04:37:44;99719.69;;;1.28;63.71
70343;BME280;57767;42.068;24.752;2023-02-17T04:38:46;99724.88;;;1.28;63.93
70343;BME280;57767;42.068;24.752;2023-02-17T04:39:48;99727.25;;;1.31;63.83
70343;BME280;57767;42.068;24.752;2023-02-17T04:40:53;99723.50;;;1.24;63.84
70343;BME280;57767;42.068;24.752;2023-02-17T04:41:55;99729.59;;;1.34;64.03
70343;BME280;57767;42.068;24.752;2023-02-17T04:42:57;99722.16;;;1.29;63.79
70343;BME280;57767;42.068;24.752;2023-02-17T04:43:58;99721.91;;;1.32;64.04
70343;BME280;57767;42.068;24.752;2023-02-17T04:45:00;99715.50;;;1.36;64.09
70343;BME280;57767;42.068;24.752;2023-02-17T04:46:02;99717.28;;;1.36;64.01
70343;BME280;57767;42.068;24.752;2023-02-17T04:47:04;99717.03;;;1.39;63.90
70343;BME280;57767;42.068;24.752;2023-02-17T04:48:06;99715.09;;;1.41;63.77
70343;BME280;57767;42.068;24.752;2023-02-17T04:49:08;99706.53;;;1.29;64.36
70343;BME280;57767;42.068;24.752;2023-02-17T04:50:10;99702.16;;;1.30;64.72
70343;BME280;57767;42.068;24.752;2023-02-17T04:51:12;99706.00;;;1.26;64.41
70343;BME280;57767;42.068;24.752;2023-02-17T04:52:14;99704.47;;;1.23;64.34
70343;BME280;57767;42.068;24.752;2023-02-17T04:53:16;99711.75;;;1.29;64.38
70343;BME280;57767;42.068;24.752;2023-02-17T04:54:18;99702.41;;;1.27;63.84
70343;BME280;57767;42.068;24.752;2023-02-17T04:55:20;99710.09;;;1.28;63.72
70343;BME280;57767;42.068;24.752;2023-02-17T04:56:21;99708.19;;;1.30;63.35
70343;BME280;57767;42.068;24.752;2023-02-17T04:57:23;99717.78;;;1.30;62.98
70343;BME280;57767;42.068;24.752;2023-02-17T04:58:25;99723.56;;;1.33;63.44
70343;BME280;57767;42.068;24.752;2023-02-17T04:59:27;99701.75;;;1.25;63.49
70343;BME280;57767;42.068;24.752;2023-02-17T05:00:28;99711.25;;;1.35;63.04
70343;BME280;57767;42.068;24.752;2023-02-17T05:01:31;99719.75;;;1.37;62.51
70343;BME280;57767;42.068;24.752;2023-02-17T05:02:32;99702.63;;;1.35;62.99
70343;BME280;57767;42.068;24.752;2023-02-17T05:03:34;99696.72;;;1.33;63.30
70343;BME280;57767;42.068;24.752;2023-02-17T05:04:36;99695.38;;;1.18;63.94
70343;BME280;57767;42.068;24.752;2023-02-17T05:05:38;99689.75;;;1.13;64.11
70343;BME280;57767;42.068;24.752;2023-02-17T05:06:40;99696.63;;;1.14;64.51
70343;BME280;57767;42.068;24.752;2023-02-17T05:07:41;99696.63;;;1.14;64.89
70343;BME280;57767;42.068;24.752;2023-02-17T05:08:43;99704.44;;;1.02;65.49
70343;BME280;57767;42.068;24.752;2023-02-17T05:09:45;99709.41;;;1.05;65.43
70343;BME280;57767;42.068;24.752;2023-02-17T05:10:47;99711.75;;;1.08;65.45
70343;BME280;57767;42.068;24.752;2023-02-17T05:11:50;99710.81;;;1.10;65.02
70343;BME280;57767;42.068;24.752;2023-02-17T05:12:52;99699.00;;;1.05;65.01
70343;BME280;57767;42.068;24.752;2023-02-17T05:13:54;99699.19;;;0.93;65.12
70343;BME280;57767;42.068;24.752;2023-02-17T05:14:55;99693.81;;;0.85;66.00
70343;BME280;57767;42.068;24.752;2023-02-17T05:15:57;99699.72;;;0.87;66.11
70343;BME280;57767;42.068;24.752;2023-02-17T05:16:59;99707.94;;;0.92;65.04
70343;BME280;57767;42.068;24.752;2023-02-17T05:18:01;99716.06;;;0.98;65.18
70343;BME280;57767;42.068;24.752;2023-02-17T05:19:04;99710.19;;;0.96;65.38
70343;BME280;57767;42.068;24.752;2023-02-17T05:20:07;99718.97;;;1.05;65.18
70343;BME280;57767;42.068;24.752;2023-02-17T05:21:09;99707.69;;;0.95;65.43
70343;BME280;57767;42.068;24.752;2023-02-17T05:22:11;99720.06;;;1.02;65.04
70343;BME280;57767;42.068;24.752;2023-02-17T05:23:13;99718.59;;;0.89;65.79
70343;BME280;57767;42.068;24.752;2023-02-17T05:24:15;99716.13;;;0.87;66.43
70343;BME280;57767;42.068;24.752;2023-02-17T05:25:17;99720.13;;;0.91;66.50
70343;BME280;57767;42.068;24.752;2023-02-17T05:26:19;99707.56;;;0.96;66.24
70343;BME280;57767;42.068;24.752;2023-02-17T05:27:20;99713.53;;;0.87;66.69
70343;BME280;57767;42.068;24.752;2023-02-17T05:28:22;99703.56;;;0.92;66.74
70343;BME280;57767;42.068;24.752;2023-02-17T05:29:24;99702.66;;;0.82;67.10
70343;BME280;57767;42.068;24.752;2023-02-17T05:30:26;99697.28;;;0.74;67.76
70343;BME280;57767;42.068;24.752;2023-02-17T05:31:28;99698.38;;;0.92;67.60
70343;BME280;57767;42.068;24.752;2023-02-17T05:32:29;99704.28;;;0.94;67.44
70343;BME280;57767;42.068;24.752;2023-02-17T05:33:31;99708.53;;;0.95;67.74
70343;BME280;57767;42.068;24.752;2023-02-17T05:34:33;99715.81;;;1.01;67.91
70343;BME280;57767;42.068;24.752;2023-02-17T05:35:35;99708.91;;;1.12;67.20
70343;BME280;57767;42.068;24.752;2023-02-17T05:36:37;99708.91;;;1.12;67.31
70343;BME280;57767;42.068;24.752;2023-02-17T05:37:39;99709.16;;;1.08;67.57
70343;BME280;57767;42.068;24.752;2023-02-17T05:38:40;99717.78;;;1.09;67.05
70343;BME280;57767;42.068;24.752;2023-02-17T05:39:42;99712.88;;;1.16;67.23
70343;BME280;57767;42.068;24.752;2023-02-17T05:40:44;99710.09;;;1.28;67.11
70343;BME280;57767;42.068;24.752;2023-02-17T05:41:46;99715.63;;;1.35;66.77
70343;BME280;57767;42.068;24.752;2023-02-17T05:42:47;99719.75;;;1.37;66.54
70343;BME280;57767;42.068;24.752;2023-02-17T05:43:49;99723.03;;;1.39;66.90
70343;BME280;57767;42.068;24.752;2023-02-17T05:44:51;99727.50;;;1.49;66.70
70343;BME280;57767;42.068;24.752;2023-02-17T05:45:52;99724.94;;;1.58;66.34
70343;BME280;57767;42.068;24.752;2023-02-17T05:46:54;99720.53;;;1.59;66.66
70343;BME280;57767;42.068;24.752;2023-02-17T05:47:56;99718.78;;;1.59;65.72
70343;BME280;57767;42.068;24.752;2023-02-17T05:48:58;99725.16;;;1.76;65.62
70343;BME280;57767;42.068;24.752;2023-02-17T05:50:00;99727.06;;;1.74;66.17
70343;BME280;57767;42.068;24.752;2023-02-17T05:51:02;99719.66;;;1.79;66.51
70343;BME280;57767;42.068;24.752;2023-02-17T05:52:04;99724.00;;;1.90;66.12
70343;BME280;57767;42.068;24.752;2023-02-17T05:53:06;99726.75;;;1.98;66.20
70343;BME280;57767;42.068;24.752;2023-02-17T05:54:07;99723.75;;;2.02;65.33
70343;BME280;57767;42.068;24.752;2023-02-17T05:55:09;99726.19;;;2.04;65.51
70343;BME280;57767;42.068;24.752;2023-02-17T05:56:11;99723.09;;;2.10;66.11
70343;BME280;57767;42.068;24.752;2023-02-17T05:57:13;99715.00;;;2.13;65.54
70343;BME280;57767;42.068;24.752;2023-02-17T05:58:15;99723.94;;;2.20;65.26
70343;BME280;57767;42.068;24.752;2023-02-17T05:59:16;99715.97;;;2.22;65.44
70343;BME280;57767;42.068;24.752;2023-02-17T06:00:19;99724.75;;;2.21;65.04
70343;BME280;57767;42.068;24.752;2023-02-17T06:01:20;99728.63;;;2.26;65.20
70343;BME280;57767;42.068;24.752;2023-02-17T06:02:22;99725.91;;;2.37;64.92
70343;BME280;57767;42.068;24.752;2023-02-17T06:03:24;99720.66;;;2.28;64.72